sensor_id;sensor_type;location;lat;lon;timestamp;temperature;humidity
2855;DHT22;1435;49.472;10.940;2023-08-06T00:01:37;17.90;99.90
2855;DHT22;1435;49.472;10.940;2023-08-06T00:06:39;17.90;99.90
2855;DHT22;1435;49.472;10.940;2023-08-06T00:11:42;17.90;99.90
2855;DHT22;1435;49.472;10.940;2023-08-06T00:16:47;17.80;99.90
2855;DHT22;1435;49.472;10.940;2023-08-06T00:21:48;17.90;99.90
2855;DHT22;1435;49.472;10.940;2023-08-06T00:26:51;17.80;99.90
2855;DHT22;1435;49.472;10.940;2023-08-06T00:31:53;17.80;99.90
2855;DHT22;1435;49.472;10.940;2023-08-06T00:36:55;17.70;99.90
2855;DHT22;1435;49.472;10.940;2023-08-06T00:41:58;17.70;99.90
2855;DHT22;1435;49.472;10.940;2023-08-06T00:46:59;17.60;99.90
2855;DHT22;1435;49.472;10.940;2023-08-06T00:52:02;17.60;99.90
2855;DHT22;1435;49.472;10.940;2023-08-06T00:57:07;17.60;99.90
2855;DHT22;1435;49.472;10.940;2023-08-06T01:02:09;17.50;99.90
2855;DHT22;1435;49.472;10.940;2023-08-06T01:07:21;17.50;99.90
2855;DHT22;1435;49.472;10.940;2023-08-06T01:12:38;17.40;99.90
2855;DHT22;1435;49.472;10.940;2023-08-06T01:17:44;17.40;99.90
2855;DHT22;1435;49.472;10.940;2023-08-06T01:22:48;17.40;99.90
2855;DHT22;1435;49.472;10.940;2023-08-06T01:27:50;17.30;99.90
2855;DHT22;1435;49.472;10.940;2023-08-06T01:32:59;17.30;99.90
2855;DHT22;1435;49.472;10.940;2023-08-06T01:38:03;17.30;99.90
2855;DHT22;1435;49.472;10.940;2023-08-06T01:43:04;17.20;99.90
2855;DHT22;1435;49.472;10.940;2023-08-06T01:48:06;17.20;99.90
2855;DHT22;1435;49.472;10.940;2023-08-06T01:53:09;17.20;99.90
2855;DHT22;1435;49.472;10.940;2023-08-06T01:58:11;17.10;99.90
2855;DHT22;1435;49.472;10.940;2023-08-06T02:03:12;17.10;99.90
2855;DHT22;1435;49.472;10.940;2023-08-06T02:08:15;17.00;99.90
2855;DHT22;1435;49.472;10.940;2023-08-06T02:13:17;17.00;99.90
2855;DHT22;1435;49.472;10.940;2023-08-06T02:18:19;16.90;99.90
2855;DHT22;1435;49.472;10.940;2023-08-06T02:23:22;16.90;99.90
2855;DHT22;1435;49.472;10.940;2023-08-06T02:28:23;16.80;99.90
2855;DHT22;1435;49.472;10.940;2023-08-06T02:33:25;16.80;99.90
2855;DHT22;1435;49.472;10.940;2023-08-06T02:38:28;16.80;99.90
2855;DHT22;1435;49.472;10.940;2023-08-06T02:43:30;16.80;99.90
2855;DHT22;1435;49.472;10.940;2023-08-06T02:48:31;16.80;99.90
2855;DHT22;1435;49.472;10.940;2023-08-06T02:53:35;16.70;99.90
2855;DHT22;1435;49.472;10.940;2023-08-06T02:58:37;16.70;99.90
2855;DHT22;1435;49.472;10.940;2023-08-06T03:03:38;16.70;99.90
2855;DHT22;1435;49.472;10.940;2023-08-06T03:08:41;16.70;99.90
2855;DHT22;1435;49.472;10.940;2023-08-06T03:13:43;16.70;99.90
2855;DHT22;1435;49.472;10.940;2023-08-06T03:18:45;16.70;99.90
2855;DHT22;1435;49.472;10.940;2023-08-06T03:23:48;16.60;99.90
2855;DHT22;1435;49.472;10.940;2023-08-06T03:28:50;16.60;99.90
2855;DHT22;1435;49.472;10.940;2023-08-06T03:33:51;16.60;99.90
2855;DHT22;1435;49.472;10.940;2023-08-06T03:38:54;16.50;99.90
2855;DHT22;1435;49.472;10.940;2023-08-06T03:43:56;16.50;99.90
2855;DHT22;1435;49.472;10.940;2023-08-06T03:48:58;16.50;99.90
2855;DHT22;1435;49.472;10.940;2023-08-06T03:54:01;16.40;99.90
2855;DHT22;1435;49.472;10.940;2023-08-06T03:59:02;16.40;99.90
2855;DHT22;1435;49.472;10.940;2023-08-06T04:04:04;16.40;99.90
2855;DHT22;1435;49.472;10.940;2023-08-06T04:09:07;16.30;99.90
2855;DHT22;1435;49.472;10.940;2023-08-06T04:14:08;16.30;99.90
2855;DHT22;1435;49.472;10.940;2023-08-06T04:19:10;16.30;99.90
2855;DHT22;1435;49.472;10.940;2023-08-06T04:24:13;16.20;99.90
2855;DHT22;1435;49.472;10.940;2023-08-06T04:29:15;16.20;99.90
2855;DHT22;1435;49.472;10.940;2023-08-06T04:34:16;16.20;99.90
2855;DHT22;1435;49.472;10.940;2023-08-06T04:39:19;16.20;99.90
2855;DHT22;1435;49.472;10.940;2023-08-06T04:44:21;16.10;99.90
2855;DHT22;1435;49.472;10.940;2023-08-06T04:49:23;16.10;99.90
2855;DHT22;1435;49.472;10.940;2023-08-06T04:54:26;16.00;99.90
2855;DHT22;1435;49.472;10.940;2023-08-06T04:59:28;16.00;99.90
2855;DHT22;1435;49.472;10.940;2023-08-06T05:04:29;16.00;99.90
2855;DHT22;1435;49.472;10.940;2023-08-06T05:09:32;15.90;99.90
2855;DHT22;1435;49.472;10.940;2023-08-06T05:14:34;15.90;99.90
2855;DHT22;1435;49.472;10.940;2023-08-06T05:19:36;15.90;99.90
2855;DHT22;1435;49.472;10.940;2023-08-06T05:24:39;15.90;99.90
2855;DHT22;1435;49.472;10.940;2023-08-06T05:29:40;15.90;99.90
2855;DHT22;1435;49.472;10.940;2023-08-06T05:34:42;15.90;99.90
2855;DHT22;1435;49.472;10.940;2023-08-06T05:39:45;15.90;99.90
2855;DHT22;1435;49.472;10.940;2023-08-06T05:44:47;16.00;99.90
2855;DHT22;1435;49.472;10.940;2023-08-06T05:49:48;16.00;99.90
2855;DHT22;1435;49.472;10.940;2023-08-06T05:54:51;16.00;99.90
2855;DHT22;1435;49.472;10.940;2023-08-06T05:59:53;16.00;99.90
2855;DHT22;1435;49.472;10.940;2023-08-06T06:04:55;16.00;99.90
2855;DHT22;1435;49.472;10.940;2023-08-06T06:09:58;16.10;99.90
2855;DHT22;1435;49.472;10.940;2023-08-06T06:15:00;16.10;99.90
2855;DHT22;1435;49.472;10.940;2023-08-06T06:20:03;16.10;99.90
2855;DHT22;1435;49.472;10.940;2023-08-06T06:25:07;16.20;99.90
2855;DHT22;1435;49.472;10.940;2023-08-06T06:30:11;16.20;99.90
2855;DHT22;1435;49.472;10.940;2023-08-06T06:35:13;16.20;99.90
2855;DHT22;1435;49.472;10.940;2023-08-06T06:40:16;16.20;99.90
2855;DHT22;1435;49.472;10.940;2023-08-06T06:45:18;16.30;99.90
2855;DHT22;1435;49.472;10.940;2023-08-06T06:50:20;16.30;99.90
2855;DHT22;1435;49.472;10.940;2023-08-06T06:55:23;16.30;99.90
2855;DHT22;1435;49.472;10.940;2023-08-06T07:00:24;16.30;99.90
2855;DHT22;1435;49.472;10.940;2023-08-06T07:05:26;16.30;99.90
2855;DHT22;1435;49.472;10.940;2023-08-06T07:10:29;16.30;99.90
2855;DHT22;1435;49.472;10.940;2023-08-06T07:15:31;16.40;99.90
2855;DHT22;1435;49.472;10.940;2023-08-06T07:20:33;16.40;99.90
2855;DHT22;1435;49.472;10.940;2023-08-06T07:25:36;16.40;99.90
2855;DHT22;1435;49.472;10.940;2023-08-06T07:30:38;16.40;99.90
2855;DHT22;1435;49.472;10.940;2023-08-06T07:35:40;16.50;99.90
2855;DHT22;1435;49.472;10.940;2023-08-06T07:40:45;16.50;99.90
2855;DHT22;1435;49.472;10.940;2023-08-06T07:45:46;16.50;99.90
2855;DHT22;1435;49.472;10.940;2023-08-06T07:50:51;16.60;99.90
2855;DHT22;1435;49.472;10.940;2023-08-06T07:55:55;16.60;99.90
2855;DHT22;1435;49.472;10.940;2023-08-06T08:00:57;16.60;99.90
2855;DHT22;1435;49.472;10.940;2023-08-06T08:05:58;16.70;99.90
2855;DHT22;1435;49.472;10.940;2023-08-06T08:11:01;16.70;99.90
2855;DHT22;1435;49.472;10.940;2023-08-06T08:16:03;16.70;99.90
2855;DHT22;1435;49.472;10.940;2023-08-06T08:21:05;16.80;99.90
2855;DHT22;1435;49.472;10.940;2023-08-06T08:26:08;16.80;99.90
2855;DHT22;1435;49.472;10.940;2023-08-06T08:31:10;16.90;99.90
2855;DHT22;1435;49.472;10.940;2023-08-06T08:36:12;16.80;99.90
2855;DHT22;1435;49.472;10.940;2023-08-06T08:41:15;16.80;99.90
2855;DHT22;1435;49.472;10.940;2023-08-06T08:46:18;16.80;99.90
2855;DHT22;1435;49.472;10.940;2023-08-06T08:51:20;16.90;99.90
2855;DHT22;1435;49.472;10.940;2023-08-06T08:56:23;16.80;99.90
2855;DHT22;1435;49.472;10.940;2023-08-06T09:01:26;16.80;99.90
2855;DHT22;1435;49.472;10.940;2023-08-06T09:06:30;16.80;99.90
2855;DHT22;1435;49.472;10.940;2023-08-06T09:11:38;16.80;99.90
2855;DHT22;1435;49.472;10.940;2023-08-06T09:16:41;16.90;99.90
2855;DHT22;1435;49.472;10.940;2023-08-06T09:21:43;16.90;99.90
2855;DHT22;1435;49.472;10.940;2023-08-06T09:26:46;16.80;99.90
2855;DHT22;1435;49.472;10.940;2023-08-06T09:31:49;16.90;99.90
2855;DHT22;1435;49.472;10.940;2023-08-06T09:36:53;17.00;99.90
2855;DHT22;1435;49.472;10.940;2023-08-06T09:41:58;17.10;99.90
2855;DHT22;1435;49.472;10.940;2023-08-06T09:47:01;17.10;99.90
2855;DHT22;1435;49.472;10.940;2023-08-06T09:52:03;17.10;99.90
2855;DHT22;1435;49.472;10.940;2023-08-06T09:57:08;17.20;99.90
2855;DHT22;1435;49.472;10.940;2023-08-06T10:02:13;17.20;99.90
2855;DHT22;1435;49.472;10.940;2023-08-06T10:07:15;17.20;99.90
2855;DHT22;1435;49.472;10.940;2023-08-06T10:12:21;17.20;99.90
2855;DHT22;1435;49.472;10.940;2023-08-06T10:17:24;17.30;99.90
2855;DHT22;1435;49.472;10.940;2023-08-06T10:22:27;17.20;99.90
2855;DHT22;1435;49.472;10.940;2023-08-06T10:27:32;17.20;99.90
2855;DHT22;1435;49.472;10.940;2023-08-06T10:32:47;17.30;99.90
2855;DHT22;1435;49.472;10.940;2023-08-06T10:37:49;17.30;99.90
2855;DHT22;1435;49.472;10.940;2023-08-06T10:42:56;17.30;99.90
2855;DHT22;1435;49.472;10.940;2023-08-06T10:48:04;17.30;99.90
2855;DHT22;1435;49.472;10.940;2023-08-06T10:53:07;17.30;99.90
2855;DHT22;1435;49.472;10.940;2023-08-06T10:58:15;17.30;99.90
2855;DHT22;1435;49.472;10.940;2023-08-06T11:03:21;17.30;99.90
2855;DHT22;1435;49.472;10.940;2023-08-06T11:08:27;17.30;99.90
2855;DHT22;1435;49.472;10.940;2023-08-06T11:13:30;17.40;99.90
2855;DHT22;1435;49.472;10.940;2023-08-06T11:18:50;17.50;99.90
2855;DHT22;1435;49.472;10.940;2023-08-06T11:23:54;17.50;99.90
2855;DHT22;1435;49.472;10.940;2023-08-06T11:28:57;17.50;99.90
2855;DHT22;1435;49.472;10.940;2023-08-06T11:33:59;17.50;99.90
2855;DHT22;1435;49.472;10.940;2023-08-06T11:39:02;17.60;99.90
2855;DHT22;1435;49.472;10.940;2023-08-06T11:44:10;17.60;99.90
2855;DHT22;1435;49.472;10.940;2023-08-06T11:49:14;17.60;99.90
2855;DHT22;1435;49.472;10.940;2023-08-06T11:54:15;17.70;99.90
2855;DHT22;1435;49.472;10.940;2023-08-06T11:59:18;17.70;99.90
2855;DHT22;1435;49.472;10.940;2023-08-06T12:04:23;17.60;99.90
2855;DHT22;1435;49.472;10.940;2023-08-06T12:09:24;17.50;99.90
2855;DHT22;1435;49.472;10.940;2023-08-06T12:14:27;17.60;99.90
2855;DHT22;1435;49.472;10.940;2023-08-06T12:19:29;17.70;99.90
2855;DHT22;1435;49.472;10.940;2023-08-06T12:24:31;17.60;99.90
2855;DHT22;1435;49.472;10.940;2023-08-06T12:29:34;17.50;99.90
2855;DHT22;1435;49.472;10.940;2023-08-06T12:34:37;17.50;99.90
2855;DHT22;1435;49.472;10.940;2023-08-06T12:39:38;17.50;99.90
2855;DHT22;1435;49.472;10.940;2023-08-06T12:44:41;17.50;99.90
2855;DHT22;1435;49.472;10.940;2023-08-06T12:49:43;17.50;99.90
2855;DHT22;1435;49.472;10.940;2023-08-06T12:54:45;17.50;99.90
2855;DHT22;1435;49.472;10.940;2023-08-06T12:59:48;17.60;99.90
2855;DHT22;1435;49.472;10.940;2023-08-06T13:04:49;17.70;99.90
2855;DHT22;1435;49.472;10.940;2023-08-06T13:09:51;17.80;99.90
2855;DHT22;1435;49.472;10.940;2023-08-06T13:14:54;17.70;99.90
2855;DHT22;1435;49.472;10.940;2023-08-06T13:19:57;17.70;99.90
2855;DHT22;1435;49.472;10.940;2023-08-06T13:24:59;17.80;99.90
2855;DHT22;1435;49.472;10.940;2023-08-06T13:30:03;17.80;99.90
2855;DHT22;1435;49.472;10.940;2023-08-06T13:35:05;17.80;99.90
2855;DHT22;1435;49.472;10.940;2023-08-06T13:40:07;17.70;99.90
2855;DHT22;1435;49.472;10.940;2023-08-06T13:45:11;17.60;99.90
2855;DHT22;1435;49.472;10.940;2023-08-06T13:50:13;17.60;99.90
2855;DHT22;1435;49.472;10.940;2023-08-06T13:55:14;17.70;99.90
2855;DHT22;1435;49.472;10.940;2023-08-06T14:00:18;17.60;99.90
2855;DHT22;1435;49.472;10.940;2023-08-06T14:05:20;17.30;99.90
2855;DHT22;1435;49.472;10.940;2023-08-06T14:10:22;17.30;99.90
2855;DHT22;1435;49.472;10.940;2023-08-06T14:15:25;17.20;99.90
2855;DHT22;1435;49.472;10.940;2023-08-06T14:20:26;16.90;99.90
2855;DHT22;1435;49.472;10.940;2023-08-06T14:25:28;16.80;99.90
2855;DHT22;1435;49.472;10.940;2023-08-06T14:30:31;16.80;99.90
2855;DHT22;1435;49.472;10.940;2023-08-06T14:35:33;16.70;99.90
2855;DHT22;1435;49.472;10.940;2023-08-06T14:40:35;16.50;99.90
2855;DHT22;1435;49.472;10.940;2023-08-06T14:45:39;16.50;99.90
2855;DHT22;1435;49.472;10.940;2023-08-06T14:50:41;16.30;99.90
2855;DHT22;1435;49.472;10.940;2023-08-06T14:55:43;16.30;99.90
2855;DHT22;1435;49.472;10.940;2023-08-06T15:00:46;16.20;99.90
2855;DHT22;1435;49.472;10.940;2023-08-06T15:05:48;16.20;99.90
2855;DHT22;1435;49.472;10.940;2023-08-06T15:10:50;16.20;99.90
2855;DHT22;1435;49.472;10.940;2023-08-06T15:15:54;16.20;99.90
2855;DHT22;1435;49.472;10.940;2023-08-06T15:20:56;16.00;99.90
2855;DHT22;1435;49.472;10.940;2023-08-06T15:25:58;15.90;99.90
2855;DHT22;1435;49.472;10.940;2023-08-06T15:31:01;15.90;99.90
2855;DHT22;1435;49.472;10.940;2023-08-06T15:36:05;16.00;99.90
2855;DHT22;1435;49.472;10.940;2023-08-06T15:41:06;16.00;99.90
2855;DHT22;1435;49.472;10.940;2023-08-06T15:46:09;16.00;99.90
2855;DHT22;1435;49.472;10.940;2023-08-06T15:51:11;16.10;99.90
2855;DHT22;1435;49.472;10.940;2023-08-06T15:56:13;16.00;99.90
2855;DHT22;1435;49.472;10.940;2023-08-06T16:01:16;16.10;99.90
2855;DHT22;1435;49.472;10.940;2023-08-06T16:06:18;16.10;99.90
2855;DHT22;1435;49.472;10.940;2023-08-06T16:11:19;16.10;99.90
2855;DHT22;1435;49.472;10.940;2023-08-06T16:16:22;16.30;99.90
2855;DHT22;1435;49.472;10.940;2023-08-06T16:21:24;16.20;99.90
2855;DHT22;1435;49.472;10.940;2023-08-06T16:26:26;16.30;99.90
2855;DHT22;1435;49.472;10.940;2023-08-06T16:31:29;16.20;99.90
2855;DHT22;1435;49.472;10.940;2023-08-06T16:36:31;16.10;99.90
2855;DHT22;1435;49.472;10.940;2023-08-06T16:41:33;16.20;99.90
2855;DHT22;1435;49.472;10.940;2023-08-06T16:46:36;16.20;99.90
2855;DHT22;1435;49.472;10.940;2023-08-06T16:51:38;16.30;99.90
2855;DHT22;1435;49.472;10.940;2023-08-06T16:56:39;16.20;99.90
2855;DHT22;1435;49.472;10.940;2023-08-06T17:01:42;16.20;99.90
2855;DHT22;1435;49.472;10.940;2023-08-06T17:06:44;16.20;99.90
2855;DHT22;1435;49.472;10.940;2023-08-06T17:11:47;16.20;99.90
2855;DHT22;1435;49.472;10.940;2023-08-06T17:16:50;16.20;99.90
2855;DHT22;1435;49.472;10.940;2023-08-06T17:21:52;16.30;99.90
2855;DHT22;1435;49.472;10.940;2023-08-06T17:26:54;16.30;99.90
2855;DHT22;1435;49.472;10.940;2023-08-06T17:32:00;16.30;99.90
2855;DHT22;1435;49.472;10.940;2023-08-06T17:37:02;16.20;99.90
2855;DHT22;1435;49.472;10.940;2023-08-06T17:42:06;16.20;99.90
2855;DHT22;1435;49.472;10.940;2023-08-06T17:47:12;16.10;99.90
2855;DHT22;1435;49.472;10.940;2023-08-06T17:52:13;16.20;99.90
2855;DHT22;1435;49.472;10.940;2023-08-06T17:57:16;16.10;99.90
2855;DHT22;1435;49.472;10.940;2023-08-06T18:02:19;16.20;99.90
2855;DHT22;1435;49.472;10.940;2023-08-06T18:07:21;16.00;99.90
2855;DHT22;1435;49.472;10.940;2023-08-06T18:12:23;16.00;99.90
2855;DHT22;1435;49.472;10.940;2023-08-06T18:17:26;15.90;99.90
2855;DHT22;1435;49.472;10.940;2023-08-06T18:22:28;15.90;99.90
2855;DHT22;1435;49.472;10.940;2023-08-06T18:27:29;15.90;99.90
2855;DHT22;1435;49.472;10.940;2023-08-06T18:32:32;15.90;99.90
2855;DHT22;1435;49.472;10.940;2023-08-06T18:37:34;15.90;99.90
2855;DHT22;1435;49.472;10.940;2023-08-06T18:42:37;15.90;99.90
2855;DHT22;1435;49.472;10.940;2023-08-06T18:47:40;15.90;99.90
2855;DHT22;1435;49.472;10.940;2023-08-06T18:52:42;15.80;99.90
2855;DHT22;1435;49.472;10.940;2023-08-06T18:57:44;15.90;99.90
2855;DHT22;1435;49.472;10.940;2023-08-06T19:02:47;15.70;99.90
2855;DHT22;1435;49.472;10.940;2023-08-06T19:07:49;15.70;99.90
2855;DHT22;1435;49.472;10.940;2023-08-06T19:12:50;15.60;99.90
2855;DHT22;1435;49.472;10.940;2023-08-06T19:17:54;15.50;99.90
2855;DHT22;1435;49.472;10.940;2023-08-06T19:22:55;15.60;99.90
2855;DHT22;1435;49.472;10.940;2023-08-06T19:27:57;15.50;99.90
2855;DHT22;1435;49.472;10.940;2023-08-06T19:33:00;15.50;99.90
2855;DHT22;1435;49.472;10.940;2023-08-06T19:38:02;15.60;99.90
2855;DHT22;1435;49.472;10.940;2023-08-06T19:43:04;15.60;99.90
2855;DHT22;1435;49.472;10.940;2023-08-06T19:48:07;15.60;99.90
2855;DHT22;1435;49.472;10.940;2023-08-06T19:53:09;15.60;99.90
2855;DHT22;1435;49.472;10.940;2023-08-06T19:58:10;15.50;99.90
2855;DHT22;1435;49.472;10.940;2023-08-06T20:03:13;15.60;99.90
2855;DHT22;1435;49.472;10.940;2023-08-06T20:08:15;15.50;99.90
2855;DHT22;1435;49.472;10.940;2023-08-06T20:13:17;15.40;99.90
2855;DHT22;1435;49.472;10.940;2023-08-06T20:18:20;15.50;99.90
2855;DHT22;1435;49.472;10.940;2023-08-06T20:23:23;15.40;99.90
2855;DHT22;1435;49.472;10.940;2023-08-06T20:28:25;15.30;99.90
2855;DHT22;1435;49.472;10.940;2023-08-06T20:33:28;15.10;99.90
2855;DHT22;1435;49.472;10.940;2023-08-06T20:38:30;15.10;99.90
2855;DHT22;1435;49.472;10.940;2023-08-06T20:43:32;15.10;99.90
2855;DHT22;1435;49.472;10.940;2023-08-06T20:48:35;15.10;99.90
2855;DHT22;1435;49.472;10.940;2023-08-06T20:53:37;15.10;99.90
2855;DHT22;1435;49.472;10.940;2023-08-06T20:58:39;15.10;99.90
2855;DHT22;1435;49.472;10.940;2023-08-06T21:03:42;15.00;99.90
2855;DHT22;1435;49.472;10.940;2023-08-06T21:08:44;15.00;99.90
2855;DHT22;1435;49.472;10.940;2023-08-06T21:13:45;15.00;99.90
2855;DHT22;1435;49.472;10.940;2023-08-06T21:18:48;14.90;99.90
2855;DHT22;1435;49.472;10.940;2023-08-06T21:23:50;14.90;99.90
2855;DHT22;1435;49.472;10.940;2023-08-06T21:28:52;14.80;99.90
2855;DHT22;1435;49.472;10.940;2023-08-06T21:33:55;14.70;99.90
2855;DHT22;1435;49.472;10.940;2023-08-06T21:38:57;14.70;99.90
2855;DHT22;1435;49.472;10.940;2023-08-06T21:43:58;14.80;99.90
2855;DHT22;1435;49.472;10.940;2023-08-06T21:49:02;14.80;99.90
2855;DHT22;1435;49.472;10.940;2023-08-06T21:54:03;14.80;99.90
2855;DHT22;1435;49.472;10.940;2023-08-06T21:59:05;14.70;99.90
2855;DHT22;1435;49.472;10.940;2023-08-06T22:04:08;14.70;99.90
2855;DHT22;1435;49.472;10.940;2023-08-06T22:09:10;14.60;99.90
2855;DHT22;1435;49.472;10.940;2023-08-06T22:14:12;14.60;99.90
2855;DHT22;1435;49.472;10.940;2023-08-06T22:19:15;14.50;99.90
2855;DHT22;1435;49.472;10.940;2023-08-06T22:24:17;14.50;99.90
2855;DHT22;1435;49.472;10.940;2023-08-06T22:29:18;14.60;99.90
2855;DHT22;1435;49.472;10.940;2023-08-06T22:34:21;14.50;99.90
2855;DHT22;1435;49.472;10.940;2023-08-06T22:39:23;14.40;99.90
2855;DHT22;1435;49.472;10.940;2023-08-06T22:44:25;14.40;99.90
2855;DHT22;1435;49.472;10.940;2023-08-06T22:49:28;14.30;99.90
2855;DHT22;1435;49.472;10.940;2023-08-06T22:54:30;14.30;99.90
2855;DHT22;1435;49.472;10.940;2023-08-06T22:59:32;14.30;99.90
2855;DHT22;1435;49.472;10.940;2023-08-06T23:04:35;14.30;99.90
2855;DHT22;1435;49.472;10.940;2023-08-06T23:09:37;14.20;99.90
2855;DHT22;1435;49.472;10.940;2023-08-06T23:14:38;14.10;99.90
2855;DHT22;1435;49.472;10.940;2023-08-06T23:19:41;14.10;99.90
2855;DHT22;1435;49.472;10.940;2023-08-06T23:24:43;14.10;99.90
2855;DHT22;1435;49.472;10.940;2023-08-06T23:29:45;14.10;99.90
2855;DHT22;1435;49.472;10.940;2023-08-06T23:34:48;14.00;99.90
2855;DHT22;1435;49.472;10.940;2023-08-06T23:39:49;13.90;99.90
2855;DHT22;1435;49.472;10.940;2023-08-06T23:44:55;13.90;99.90
2855;DHT22;1435;49.472;10.940;2023-08-06T23:49:58;14.00;99.90
2855;DHT22;1435;49.472;10.940;2023-08-06T23:55:00;13.90;99.90
